Big Trout Lake Airport
CYTL : now visible

Airfield :











YOU CAN JOIN US ON...

 
LOGIN :

Register | Disclaimer

   EN    FR    IT 

 









Legend :    VFR   Marginal VFR   IFR   Intensive IFR   Very Intensive IFR
Visi :
Ceiling :
>= 8 km
>= 3000ft
5 to 8 km
1000 to 3000 ft
1500m to 5 km
500 to 1000 ft
800 to 1500m
200 to 500 ft
< 800m
< 200 ft
Symbols :   Thunderstorms  Fog  Heavy snow  Heavy precipitations  Wind > 20 kt







- Airport Elevation : 729 ft
- IATA code : YTL


CYTL - Big Trout Lake

CURRENT METAR :
  • 191232Z AUTO 34007KT 310V010 5SM -RA BR BKN007 OVC016 01/01 A3022 RMK SLP251

EXPIRED METARs :
  • 191221Z AUTO 33007KT 3SM -UP BR BKN007 OVC012 01/01 A3023 RMK SLP252
  • 191210Z AUTO 33004KT 2 1/4SM -SN BKN005 OVC012 01/01 A3023 RMK SLP254
  • 191155Z AUTO 34005KT 1 3/4SM -RASN FEW005 OVC010 00/00 A3023 RMK SLP254
  • 191148Z AUTO 33005KT 2 1/2SM -RA BR SCT005 OVC010 00/00 A3023 RMK SLP253
  • 191134Z AUTO 34003KT 300V010 2 1/4SM -RA SCT004 OVC011 00/ A3023 RMK VIS VRB 1 1/2-3 TD MISG SLP254
  • 191123Z AUTO 31003KT 2 1/2SM -RA -UP BKN004 BKN009 OVC015 00/ A3024 RMK TD MISG SLP257
  • 191104Z AUTO 33002KT 1 1/2SM -SN BKN004 BKN013 OVC020 00/00 A3023 RMK SLP254
  • 191101Z AUTO 33003KT 1 3/4SM -SN SCT004 BKN013 OVC020 00/00 A3023 RMK SLP253
  • 191044Z AUTO 33004KT 3SM -SN FEW006 SCT014 OVC020 00/00 A3024 RMK SLP255
  • 191038Z AUTO 32004KT 3SM -RASN FEW006 BKN014 OVC020 00/00 A3024 RMK SLP256
  • 191022Z AUTO 32003KT 6SM -SN BKN012 OVC020 00/00 A3024 RMK SLP257
  • 191013Z AUTO 33003KT 4SM -SN OVC012 00/00 A3024 RMK SLP257
  • 190958Z AUTO 31004KT 6SM -RA BR OVC010 01/00 A3024 RMK SLP256

TAF TAF CYTL
Valid from the 19 at 08:00 until the 19 at 20:00 UTC


190739Z 1908/1920 30005KT P6SM OVC012
TEMPO 1908/1913 4SM -SNRA OVC006
PROB30 1908/1913 3SM -FZDZ BR
FM191300 33008KT P6SM BKN015
TEMPO 1913/1917 SCT015
FM191700 32008KT P6SM SCT020 RMK FCST BASED ON AUTO OBS. NXT FCST BY 191400Z
CZWG FIR / North America



MET'MAP, your aeronautical weather chart ! - Copyright ORBIFLY December 2007 - Disclaimer

ORBIFLY MET'MAP TEAM :

Programming & Development : Alexandra Zaïnal
Concept & Development : Baudouin d'Aumeries
Co-Development & Prog : Marc-Olivier Méhu
Technical & hardware support : Manuel Goepfert

Contact : metmap@orbifly.com




SOURCES & CREDITS :

   NOAA       Earth
Advisory